Time;durP1;ratioP1;P1;durP2;ratioP2;P2;SDS_P1;SDS_P2;PMS_P1;PMS_P2;Temp;Humidity;BMP_temperature;BMP_pressure;BME280_temperature;BME280_humidity;BME280_pressure;Samples;Min_cycle;Max_cycle;Signal;HPM_P1;HPM_P2
2023/01/18 00:01:25;;;;;;;14.70;8.77;;;7.70;99.90;;;;;;4955733;28;19958;-80
2023/01/18 00:03:51;;;;;;;;;;;7.80;99.90;;;;;;4957681;29;20018;-79
2023/01/18 00:06:17;;;;;;;16.15;8.80;;;7.80;99.90;;;;;;4958598;29;19902;-81
2023/01/18 00:08:43;;;;;;;;;;;7.80;99.90;;;;;;4958617;29;20015;-79
2023/01/18 00:11:11;;;;;;;19.50;9.27;;;7.80;99.90;;;;;;4956635;29;19938;-80
2023/01/18 00:13:37;;;;;;;15.65;9.20;;;7.70;99.90;;;;;;4955859;29;20051;-78
2023/01/18 00:16:15;;;;;;;21.80;10.07;;;7.70;99.90;;;;;;4953299;29;20032;-79
2023/01/18 00:18:41;;;;;;;19.00;10.23;;;7.70;99.90;;;;;;4953828;29;20035;-80
2023/01/18 00:21:10;;;;;;;17.33;10.10;;;7.70;99.90;;;;;;4954163;29;20051;-79
2023/01/18 00:23:36;;;;;;;14.15;8.48;;;7.70;99.90;;;;;;4954365;29;20079;-79
2023/01/18 00:26:04;;;;;;;20.92;10.45;;;7.60;99.90;;;;;;4953065;29;20043;-79
2023/01/18 00:28:30;;;;;;;19.92;10.48;;;7.60;99.90;;;;;;4953083;29;20047;-79
2023/01/18 00:30:56;;;;;;;;;;;7.60;99.90;;;;;;4953150;29;20008;-78
2023/01/18 00:33:21;;;;;;;18.83;10.35;;;7.60;99.90;;;;;;4948826;29;19935;-78
2023/01/18 00:35:57;;;;;;;;;;;7.60;99.90;;;;;;4951413;29;20465;-78
2023/01/18 00:38:24;;;;;;;18.00;10.75;;;7.60;99.90;;;;;;4953144;29;19903;-79
2023/01/18 00:40:50;;;;;;;19.85;12.13;;;7.60;99.90;;;;;;4952493;29;20032;-80
2023/01/18 00:46:00;;;;;;;23.08;12.05;;;7.60;99.90;;;;;;4954418;29;19926;-80
2023/01/18 00:48:25;;;;;;;;;;;7.50;99.90;;;;;;4957538;29;20008;-79
2023/01/18 00:50:51;;;;;;;26.60;13.27;;;7.50;99.90;;;;;;4955335;29;19910;-79
2023/01/18 00:53:16;;;;;;;;;;;7.50;99.90;;;;;;4959456;29;20052;-80
2023/01/18 00:55:42;;;;;;;26.42;14.52;;;7.50;99.90;;;;;;4959901;29;19958;-80
2023/01/18 00:58:08;;;;;;;;;;;7.50;99.90;;;;;;4957452;29;20023;-78
2023/01/18 01:00:33;;;;;;;29.77;15.55;;;7.40;99.90;;;;;;4959705;29;19891;-79
2023/01/18 01:02:59;;;;;;;;;;;7.40;99.90;;;;;;4959817;29;20016;-80
2023/01/18 01:08:17;;;;;;;33.17;16.97;;;7.40;99.90;;;;;;4959182;29;20046;-78
2023/01/18 01:10:47;;;;;;;36.42;17.58;;;7.40;99.90;;;;;;4959917;29;20295;-80
2023/01/18 01:27:10;;;;;;;30.05;16.23;;;7.40;99.90;;;;;;4958541;29;20062;-79
2023/01/18 01:29:36;;;;;;;36.80;18.88;;;7.40;99.90;;;;;;4961424;29;20028;-80
2023/01/18 01:32:02;;;;;;;35.20;18.60;;;7.40;99.90;;;;;;4962517;29;20035;-79
2023/01/18 01:34:29;;;;;;;33.67;17.75;;;7.40;99.90;;;;;;4961918;29;20027;-80
2023/01/18 01:36:55;;;;;;;33.22;17.73;;;7.40;99.90;;;;;;4961816;29;20079;-78
2023/01/18 01:39:21;;;;;;;33.38;17.02;;;7.40;99.90;;;;;;4955943;29;20479;-78
2023/01/18 01:41:47;;;;;;;35.13;19.85;;;7.40;99.90;;;;;;4957594;29;20063;-78
2023/01/18 01:44:16;;;;;;;;;;;7.40;99.90;;;;;;4960360;29;20004;-79
2023/01/18 01:47:01;;;;;;;31.65;19.65;;;7.30;99.90;;;;;;4960616;29;19907;-79
2023/01/18 01:49:49;;;;;;;32.80;19.58;;;7.30;99.90;;;;;;4961907;29;20019;-79
2023/01/18 01:52:19;;;;;;;35.33;20.80;;;7.30;99.90;;;;;;4960609;29;20059;-80
2023/01/18 01:54:47;;;;;;;33.25;21.55;;;7.30;99.90;;;;;;4962108;29;20037;-79
2023/01/18 01:57:15;;;;;;;34.72;22.67;;;7.30;99.90;;;;;;4960796;29;20087;-79
2023/01/18 02:00:01;;;;;;;40.47;23.73;;;7.30;99.90;;;;;;4959074;29;20047;-79
2023/01/18 02:02:29;;;;;;;40.25;23.23;;;7.20;99.90;;;;;;4959510;29;20052;-79
2023/01/18 02:04:57;;;;;;;31.08;21.75;;;7.20;99.90;;;;;;4960777;29;20042;-80
2023/01/18 02:07:25;;;;;;;31.13;19.63;;;7.20;99.90;;;;;;4961253;29;20036;-78
2023/01/18 02:09:51;;;;;;;28.10;18.75;;;7.20;99.90;;;;;;4961474;29;20019;-79
2023/01/18 02:12:18;;;;;;;30.33;18.35;;;7.20;99.90;;;;;;4960027;29;20047;-81
2023/01/18 02:14:44;;;;;;;25.40;18.48;;;7.10;99.90;;;;;;4961078;29;20023;-81
2023/01/18 02:17:39;;;;;;;;;;;7.10;99.90;;;;;;4961242;29;20032;-80
2023/01/18 02:20:22;;;;;;;30.10;19.75;;;7.00;99.90;;;;;;4951952;29;19915;-79
2023/01/18 02:23:07;;;;;;;31.95;19.27;;;6.90;99.90;;;;;;4961602;29;20016;-80
2023/01/18 02:26:11;;;;;;;33.88;20.77;;;6.90;99.90;;;;;;4961999;29;20084;-80
2023/01/18 02:28:39;;;;;;;35.97;20.92;;;6.90;99.90;;;;;;4885645;29;20041;-80
2023/01/18 02:31:18;;;;;;;29.80;19.52;;;6.90;99.90;;;;;;4868033;29;20060;-79
2023/01/18 02:33:45;;;;;;;32.60;20.92;;;6.90;99.90;;;;;;4928652;29;20048;-79
2023/01/18 02:36:28;;;;;;;31.65;19.98;;;6.90;99.90;;;;;;4960301;29;20036;-80
2023/01/18 02:39:01;;;;;;;31.67;19.98;;;6.90;99.90;;;;;;4956469;29;20111;-80
2023/01/18 02:47:14;;;;;;;34.53;20.63;;;6.80;99.90;;;;;;4959709;29;20023;-79
2023/01/18 02:49:40;;;;;;;34.70;21.27;;;6.80;99.90;;;;;;4961780;29;20043;-80
2023/01/18 02:52:27;;;;;;;30.35;20.40;;;6.80;99.90;;;;;;4960362;29;20032;-79
2023/01/18 02:54:53;;;;;;;31.00;21.52;;;6.80;99.90;;;;;;4961197;29;20027;-79
2023/01/18 02:57:20;;;;;;;37.42;23.02;;;6.80;99.90;;;;;;4961187;29;20035;-80
2023/01/18 02:59:53;;;;;;;35.40;22.10;;;6.80;99.90;;;;;;4959281;29;20059;-79
2023/01/18 03:02:23;;;;;;;39.85;23.60;;;6.80;99.90;;;;;;4960074;29;20011;-79
2023/01/18 03:04:53;;;;;;;40.22;22.55;;;6.70;99.90;;;;;;4960181;29;20012;-79
2023/01/18 03:07:31;;;;;;;37.63;24.15;;;6.70;99.90;;;;;;4960665;29;20051;-80
2023/01/18 03:09:59;;;;;;;45.72;26.40;;;6.70;99.90;;;;;;4960047;29;20052;-79
2023/01/18 03:12:56;;;;;;;37.50;23.75;;;6.70;99.90;;;;;;4957002;29;20044;-79
2023/01/18 03:15:47;;;;;;;43.05;25.58;;;6.70;99.90;;;;;;4958743;29;20035;-80
2023/01/18 03:18:37;;;;;;;46.58;26.83;;;6.70;99.90;;;;;;4958731;29;20031;-79
2023/01/18 03:21:04;;;;;;;44.42;24.92;;;6.70;99.90;;;;;;4960603;29;20016;-81
2023/01/18 03:23:38;;;;;;;46.05;26.55;;;6.70;99.90;;;;;;4957581;29;20047;-79
2023/01/18 03:26:15;;;;;;;33.10;23.75;;;6.70;99.90;;;;;;4957689;29;20110;-78
2023/01/18 03:34:39;;;;;;;45.83;27.27;;;6.60;99.90;;;;;;4960897;29;20035;-81
2023/01/18 03:37:11;;;;;;;38.50;23.77;;;6.60;99.90;;;;;;4960723;29;20051;-79
2023/01/18 03:39:50;;;;;;;50.92;26.88;;;6.60;99.90;;;;;;4959930;29;20032;-79
2023/01/18 03:42:27;;;;;;;45.80;27.38;;;6.60;99.90;;;;;;4960456;29;20019;-79
2023/01/18 03:45:07;;;;;;;44.47;26.88;;;6.60;99.90;;;;;;4960529;29;20015;-79
2023/01/18 03:47:33;;;;;;;42.58;25.33;;;6.60;99.90;;;;;;4958836;29;20039;-79
2023/01/18 03:49:59;;;;;;;51.40;27.75;;;6.60;99.90;;;;;;4959709;29;20032;-80
2023/01/18 03:52:36;;;;;;;47.50;26.67;;;6.60;99.90;;;;;;4959892;29;20047;-81
2023/01/18 03:55:12;;;;;;;48.25;27.48;;;6.60;99.90;;;;;;4959463;29;20039;-79
2023/01/18 03:57:50;;;;;;;46.75;27.13;;;6.50;99.90;;;;;;4960067;29;20047;-81
2023/01/18 04:00:16;;;;;;;41.88;26.40;;;6.60;99.90;;;;;;4959842;29;20020;-79
2023/01/18 04:02:43;;;;;;;49.47;26.85;;;6.60;99.90;;;;;;4959740;29;20034;-80
2023/01/18 04:05:10;;;;;;;66.03;34.03;;;6.60;99.90;;;;;;4960066;29;20023;-80
2023/01/18 04:07:35;;;;;;;57.22;31.55;;;6.50;99.90;;;;;;4959131;29;20031;-79
2023/01/18 04:10:01;;;;;;;;;;;6.60;99.90;;;;;;4959723;29;20055;-80
2023/01/18 04:12:27;;;;;;;48.58;26.83;;;6.60;99.90;;;;;;4958852;29;19923;-80
2023/01/18 04:14:53;;;;;;;55.35;30.48;;;6.60;99.90;;;;;;4959163;29;20026;-80
2023/01/18 04:17:19;;;;;;;;;;;6.50;99.90;;;;;;4959139;29;20028;-79
2023/01/18 04:19:45;;;;;;;65.28;32.03;;;6.50;99.90;;;;;;4958676;29;19911;-79
2023/01/18 04:22:10;;;;;;;;;;;6.50;99.90;;;;;;4959733;29;20019;-80
2023/01/18 04:24:36;;;;;;;41.65;27.40;;;6.50;99.90;;;;;;4959683;29;19895;-80
2023/01/18 04:27:02;;;;;;;;;;;6.60;99.90;;;;;;4958789;29;20042;-79
2023/01/18 04:29:28;;;;;;;55.35;28.80;;;6.50;99.90;;;;;;4959504;29;19906;-80
2023/01/18 04:31:54;;;;;;;;;;;6.50;99.90;;;;;;4959130;29;20030;-81
2023/01/18 04:34:22;;;;;;;53.20;28.95;;;6.50;99.90;;;;;;4957895;29;19898;-79
2023/01/18 04:36:49;;;;;;;61.10;32.90;;;6.50;99.90;;;;;;4957810;29;20063;-79
2023/01/18 04:39:14;;;;;;;57.45;33.65;;;6.50;99.90;;;;;;4958610;29;20044;-79
2023/01/18 04:41:40;;;;;;;;;;;6.50;99.90;;;;;;4958739;29;20028;-80
2023/01/18 04:44:06;;;;;;;45.92;27.48;;;6.50;99.90;;;;;;4958724;29;19915;-79
2023/01/18 04:46:31;;;;;;;;;;;6.50;99.90;;;;;;4958596;29;20032;-79
2023/01/18 04:48:57;;;;;;;44.55;26.63;;;6.50;99.90;;;;;;4958368;29;19954;-81
2023/01/18 04:51:23;;;;;;;;;;;6.50;99.90;;;;;;4958427;29;20039;-80
2023/01/18 04:53:49;;;;;;;44.40;26.92;;;6.50;99.90;;;;;;4958959;29;19895;-79
2023/01/18 04:56:16;;;;;;;50.22;28.33;;;6.50;99.90;;;;;;4957773;29;20028;-79
2023/01/18 04:58:42;;;;;;;47.55;26.70;;;6.50;99.90;;;;;;4957882;29;20055;-80
2023/01/18 05:01:11;;;;;;;44.28;26.27;;;6.50;99.90;;;;;;4958413;29;20011;-80
2023/01/18 05:03:38;;;;;;;49.08;29.60;;;6.50;99.90;;;;;;4961948;29;20079;-80
2023/01/18 05:06:09;;;;;;;35.70;22.85;;;6.50;99.90;;;;;;4962076;29;20012;-80
2023/01/18 05:08:38;;;;;;;47.08;25.98;;;6.50;99.90;;;;;;4963302;29;20091;-80
2023/01/18 05:11:05;;;;;;;36.00;22.67;;;6.60;99.90;;;;;;4963189;29;20039;-81
2023/01/18 05:13:31;;;;;;;39.35;23.92;;;6.50;99.90;;;;;;4962869;29;20087;-80
2023/01/18 05:15:58;;;;;;;33.72;20.10;;;6.50;99.90;;;;;;4961362;29;20035;-80
2023/01/18 05:18:24;;;;;;;26.75;18.70;;;6.50;99.90;;;;;;4961856;29;20046;-79
2023/01/18 05:20:50;;;;;;;;;;;6.50;99.90;;;;;;4961869;29;20167;-80
2023/01/18 05:23:16;;;;;;;24.95;16.02;;;6.50;99.90;;;;;;4962157;29;19907;-79
2023/01/18 05:25:41;;;;;;;24.23;17.38;;;6.50;99.90;;;;;;4962353;29;20024;-81
2023/01/18 05:28:07;;;;;;;;;;;6.60;99.90;;;;;;4962349;29;20024;-80
2023/01/18 05:30:37;;;;;;;20.45;15.27;;;6.50;99.90;;;;;;4961452;29;19985;-80
2023/01/18 05:33:02;;;;;;;23.70;15.90;;;6.50;99.90;;;;;;4962754;29;20031;-78
2023/01/18 05:35:28;;;;;;;;;;;6.50;99.90;;;;;;4962038;29;20030;-80
2023/01/18 05:37:54;;;;;;;31.25;19.00;;;6.50;99.90;;;;;;4961850;29;19918;-80
2023/01/18 05:40:19;;;;;;;;;;;6.50;99.90;;;;;;4962398;29;20038;-80
2023/01/18 05:42:45;;;;;;;26.40;16.70;;;6.50;99.90;;;;;;4961966;29;19907;-80
2023/01/18 05:45:11;;;;;;;;;;;6.50;99.90;;;;;;4962353;29;20055;-80
2023/01/18 05:47:36;;;;;;;26.27;16.42;;;6.50;99.90;;;;;;4962332;29;19958;-81
2023/01/18 05:50:02;;;;;;;;;;;6.50;99.90;;;;;;4963199;29;20032;-79
2023/01/18 05:52:28;;;;;;;22.13;14.13;;;6.60;99.90;;;;;;4962016;29;19943;-81
2023/01/18 05:54:53;;;;;;;;;;;6.60;99.90;;;;;;4963258;29;20028;-80
2023/01/18 05:57:19;;;;;;;34.90;22.67;;;6.60;99.90;;;;;;4962737;29;19915;-80
2023/01/18 05:59:45;;;;;;;;;;;6.60;99.90;;;;;;4963374;29;20077;-81
2023/01/18 06:02:10;;;;;;;22.80;15.55;;;6.60;99.90;;;;;;4962812;29;19934;-79
2023/01/18 06:04:36;;;;;;;;;;;6.60;99.90;;;;;;4962715;29;20016;-80
2023/01/18 06:07:02;;;;;;;23.25;16.27;;;6.70;99.90;;;;;;4961636;29;19914;-80
2023/01/18 06:09:28;;;;;;;;;;;6.70;99.90;;;;;;4961313;29;20032;-79
2023/01/18 06:11:55;;;;;;;23.85;15.55;;;6.70;99.90;;;;;;4962195;29;19922;-80
2023/01/18 06:14:21;;;;;;;21.30;15.52;;;6.70;99.90;;;;;;4961521;29;20035;-80
2023/01/18 06:16:46;;;;;;;;;;;6.60;99.90;;;;;;4963010;29;20576;-80
2023/01/18 06:45:55;;;;;;;23.58;13.73;;;5.80;99.90;;;;;;4068528;27;19991;-81
2023/01/18 06:48:22;;;;;;;26.80;15.00;;;5.70;99.90;;;;;;4942950;29;20120;-80
2023/01/18 06:50:51;;;;;;;24.95;14.77;;;5.90;99.90;;;;;;4944059;29;20071;-80
2023/01/18 06:53:19;;;;;;;21.85;14.95;;;5.80;99.90;;;;;;4943453;29;20019;-81
2023/01/18 06:56:09;;;;;;;19.33;13.48;;;5.90;99.90;;;;;;4926948;29;20020;-81
2023/01/18 06:58:35;;;;;;;18.20;12.77;;;5.80;99.90;;;;;;4927071;29;20020;-80
2023/01/18 07:01:01;;;;;;;;;;;5.70;99.90;;;;;;4928034;29;20040;-80
2023/01/18 07:03:28;;;;;;;16.40;11.10;;;5.70;99.90;;;;;;4943502;29;19962;-80
2023/01/18 07:05:55;;;;;;;15.60;11.07;;;5.60;99.90;;;;;;4927003;29;20059;-80
2023/01/18 07:08:21;;;;;;;17.13;11.77;;;5.70;99.90;;;;;;4927341;29;20104;-81
2023/01/18 07:10:48;;;;;;;20.80;10.65;;;5.80;99.90;;;;;;4943452;29;20011;-80
2023/01/18 07:13:14;;;;;;;17.70;11.10;;;5.70;99.90;;;;;;4927106;29;20091;-80
2023/01/18 07:15:40;;;;;;;;;;;5.70;99.90;;;;;;4927380;29;20016;-81
2023/01/18 07:53:08;;;;;;;6.45;3.90;;;5.90;99.90;;;;;;5351336;23;20027;-80
2023/01/18 07:55:34;;;;;;;4.70;2.75;;;5.90;99.90;;;;;;4961050;29;20020;-80
2023/01/18 07:58:01;;;;;;;4.32;2.42;;;5.80;99.90;;;;;;4961148;29;20012;-79
2023/01/18 08:00:27;;;;;;;3.72;2.22;;;5.90;99.90;;;;;;4961943;29;20028;-80
2023/01/18 08:02:53;;;;;;;3.10;1.67;;;6.00;99.90;;;;;;4961857;29;20011;-80
2023/01/18 08:05:22;;;;;;;8.00;2.97;;;6.00;99.90;;;;;;4961832;29;20019;-80
2023/01/18 08:07:54;;;;;;;8.75;6.32;;;6.00;99.90;;;;;;4961901;29;20047;-81
2023/01/18 08:10:20;;;;;;;9.40;6.70;;;6.10;99.90;;;;;;4961861;29;20055;-81
2023/01/18 08:12:47;;;;;;;6.70;4.68;;;6.10;99.90;;;;;;4960995;29;20134;-80
2023/01/18 08:15:13;;;;;;;7.90;4.45;;;5.90;99.90;;;;;;4961216;29;20044;-80
2023/01/18 08:17:39;;;;;;;;;;;5.90;99.90;;;;;;4962084;29;20093;-80
2023/01/18 08:20:08;;;;;;;7.78;5.10;;;5.90;99.90;;;;;;4961531;29;19907;-80
2023/01/18 08:22:34;;;;;;;7.40;4.75;;;6.00;99.90;;;;;;4961131;29;20024;-79
2023/01/18 08:25:00;;;;;;;8.43;6.22;;;5.90;99.90;;;;;;4961141;29;20024;-81
2023/01/18 08:27:26;;;;;;;;;;;5.90;99.90;;;;;;4961177;29;20040;-79
2023/01/18 08:29:51;;;;;;;7.88;5.72;;;6.00;99.90;;;;;;4961693;29;19902;-80
2023/01/18 08:32:17;;;;;;;;;;;6.00;99.90;;;;;;4961166;29;20027;-79
2023/01/18 08:34:43;;;;;;;9.32;6.20;;;5.80;99.90;;;;;;4961004;29;19923;-79
2023/01/18 08:37:10;;;;;;;;;;;5.80;99.90;;;;;;4960859;29;20036;-79
2023/01/18 08:39:36;;;;;;;;;;;5.90;99.90;;;;;;4961330;29;19902;-80
2023/01/18 08:42:02;;;;;;;4.07;2.70;;;5.90;99.90;;;;;;4961635;29;19895;-80
2023/01/18 08:44:28;;;;;;;3.00;1.75;;;5.70;99.90;;;;;;4961529;29;20054;-81
2023/01/18 08:46:53;;;;;;;;;;;5.60;99.90;;;;;;4961640;29;20024;-80
2023/01/18 08:49:19;;;;;;;2.22;1.45;;;5.50;99.90;;;;;;4961315;29;19937;-79
2023/01/18 08:51:45;;;;;;;;;;;5.60;99.90;;;;;;4961801;29;20031;-81
2023/01/18 08:54:11;;;;;;;1.42;0.70;;;5.50;99.90;;;;;;4960749;29;19934;-80
2023/01/18 08:56:37;;;;;;;;;;;5.40;99.90;;;;;;4961255;29;20019;-80
2023/01/18 08:59:06;;;;;;;1.10;0.60;;;5.40;99.90;;;;;;4961548;29;19902;-81
2023/01/18 09:01:32;;;;;;;1.08;0.50;;;5.60;99.90;;;;;;4961335;29;20019;-81
2023/01/18 09:03:57;;;;;;;;;;;5.60;99.90;;;;;;4961186;29;20099;-80
2023/01/18 09:06:24;;;;;;;2.25;1.08;;;5.50;99.90;;;;;;4960906;29;19958;-80
2023/01/18 09:08:50;;;;;;;2.60;0.80;;;5.70;99.90;;;;;;4960516;29;20039;-81
2023/01/18 09:11:16;;;;;;;;;;;6.00;99.90;;;;;;4961641;29;20012;-79
2023/01/18 09:13:42;;;;;;;2.20;1.33;;;6.20;99.90;;;;;;4961287;29;19929;-80
2023/01/18 10:33:25;;;;;;;2.45;1.45;;;5.70;99.90;;;;;;5199163;23;20075;-80
2023/01/18 10:35:55;;;;;;;2.70;1.50;;;5.70;99.90;;;;;;4982110;28;20023;-81
2023/01/18 10:38:25;;;;;;;2.95;1.40;;;5.60;99.90;;;;;;4982009;28;20012;-82
2023/01/18 10:41:01;;;;;;;3.85;1.90;;;5.60;99.90;;;;;;4982255;28;20027;-82
2023/01/18 10:43:30;;;;;;;3.03;1.92;;;5.60;99.90;;;;;;4981540;28;20050;-83
2023/01/18 10:45:56;;;;;;;2.85;1.73;;;5.70;99.90;;;;;;4965556;29;20031;-82
2023/01/18 10:48:31;;;;;;;2.55;1.30;;;5.60;99.90;;;;;;4965577;29;20043;-82
2023/01/18 10:51:04;;;;;;;2.20;1.30;;;5.70;99.90;;;;;;4981856;29;20067;-82
2023/01/18 10:53:36;;;;;;;1.80;0.80;;;5.60;99.90;;;;;;4981767;28;20031;-82
2023/01/18 10:56:20;;;;;;;4.88;1.70;;;5.50;99.90;;;;;;4965134;29;20011;-81
2023/01/18 10:58:49;;;;;;;2.67;1.23;;;5.50;99.90;;;;;;4965134;29;20039;-82
2023/01/18 11:01:16;;;;;;;2.33;1.10;;;5.50;99.90;;;;;;4964823;29;20087;-82
2023/01/18 11:03:52;;;;;;;2.15;1.08;;;5.60;99.90;;;;;;4981639;28;20091;-83
2023/01/18 11:06:19;;;;;;;2.30;1.07;;;5.60;99.90;;;;;;4981259;28;20039;-81
2023/01/18 11:08:47;;;;;;;2.53;1.17;;;5.50;99.90;;;;;;4966106;28;20019;-79
2023/01/18 11:32:42;;;;;;;3.38;2.17;;;5.60;99.90;;;;;;4986929;23;20039;-84
2023/01/18 11:35:09;;;;;;;;;;;5.60;99.90;;;;;;4964849;28;20042;-81
2023/01/18 11:37:42;;;;;;;4.57;3.42;;;5.60;99.90;;;;;;4981136;28;19910;-83
2023/01/18 11:40:26;;;;;;;4.78;3.15;;;5.60;99.90;;;;;;4981069;28;20087;-84
2023/01/18 11:43:02;;;;;;;4.38;2.15;;;5.70;99.90;;;;;;4964467;28;20036;-83
2023/01/18 11:45:45;;;;;;;3.72;2.30;;;5.80;99.90;;;;;;4965227;28;20023;-79
2023/01/18 11:48:32;;;;;;;4.15;2.10;;;5.80;99.90;;;;;;4981788;28;20014;-80
2023/01/18 11:51:01;;;;;;;;;;;6.00;99.90;;;;;;4965589;28;20043;-80
2023/01/18 11:53:49;;;;;;;3.03;1.90;;;6.20;99.90;;;;;;4981751;28;19903;-79
2023/01/18 11:56:22;;;;;;;2.60;1.80;;;6.20;99.90;;;;;;4981744;28;20066;-80
2023/01/18 11:58:48;;;;;;;4.07;2.80;;;6.20;99.90;;;;;;4965154;28;20051;-80
2023/01/18 12:01:34;;;;;;;;;;;6.10;99.90;;;;;;4981940;28;20019;-79
2023/01/18 12:04:02;;;;;;;4.57;2.78;;;6.00;99.90;;;;;;4981579;28;19918;-81
2023/01/18 12:07:04;;;;;;;3.83;2.90;;;6.00;99.90;;;;;;4981416;28;20070;-82
2023/01/18 12:09:33;;;;;;;3.17;1.98;;;6.00;99.90;;;;;;4975056;28;20054;-79
2023/01/18 12:12:05;;;;;;;3.03;2.20;;;6.00;99.90;;;;;;4980852;28;20029;-79
2023/01/18 12:59:03;;;;;;;4.70;2.85;;;5.70;99.90;;;;;;5109421;23;20036;-80
2023/01/18 13:01:37;;;;;;;6.65;3.10;;;5.70;99.90;;;;;;4978884;28;20055;-81
2023/01/18 13:04:14;;;;;;;5.43;2.97;;;5.70;99.90;;;;;;4980019;28;20055;-84
2023/01/18 13:06:41;;;;;;;4.90;2.65;;;5.80;99.90;;;;;;4963103;29;20031;-83
2023/01/18 13:09:17;;;;;;;4.78;2.72;;;5.20;99.90;;;;;;4980272;28;20043;-84
2023/01/18 13:11:43;;;;;;;4.53;2.45;;;5.90;99.90;;;;;;4979876;28;20047;-84
2023/01/18 13:14:33;;;;;;;7.97;2.20;;;6.10;99.90;;;;;;4980269;28;20026;-82
2023/01/18 13:17:18;;;;;;;5.68;3.22;;;6.20;99.90;;;;;;4963630;28;20051;-82
2023/01/18 13:19:59;;;;;;;4.15;2.20;;;6.30;99.90;;;;;;4979918;28;20035;-83
2023/01/18 13:22:52;;;;;;;2.92;1.70;;;6.00;99.90;;;;;;4963267;29;20026;-83
2023/01/18 13:25:47;;;;;;;3.65;2.00;;;6.10;99.90;;;;;;4984055;28;20026;-82
2023/01/18 13:28:25;;;;;;;4.13;2.30;;;6.10;99.90;;;;;;4983193;28;20063;-83
2023/01/18 13:30:59;;;;;;;3.72;1.75;;;6.00;99.90;;;;;;4983749;28;20039;-83
2023/01/18 13:33:30;;;;;;;4.90;2.28;;;6.10;99.90;;;;;;4966874;28;20035;-81
2023/01/18 13:36:12;;;;;;;7.95;3.92;;;6.10;99.90;;;;;;4983758;28;20030;-83
2023/01/18 13:38:57;;;;;;;8.68;4.72;;;6.20;99.90;;;;;;4966980;28;20045;-82
2023/01/18 13:41:25;;;;;;;6.35;3.92;;;6.20;99.90;;;;;;4983537;28;20022;-83
2023/01/18 13:43:55;;;;;;;4.45;2.22;;;6.00;99.90;;;;;;4966892;28;20061;-82
2023/01/18 13:46:23;;;;;;;3.80;2.30;;;6.20;99.90;;;;;;4983356;28;20043;-83
2023/01/18 13:48:59;;;;;;;3.58;2.10;;;6.00;99.90;;;;;;4982996;28;20043;-84
2023/01/18 13:51:40;;;;;;;3.80;2.10;;;5.50;99.90;;;;;;4966481;28;20476;-82
2023/01/18 13:54:13;;;;;;;4.07;1.38;;;5.90;99.90;;;;;;4983050;28;20047;-83
2023/01/18 13:56:59;;;;;;;5.10;1.60;;;5.60;99.90;;;;;;4982727;28;20096;-83
2023/01/18 13:59:30;;;;;;;3.22;1.90;;;5.90;99.90;;;;;;4966275;29;20015;-83
2023/01/18 14:02:24;;;;;;;3.88;2.13;;;5.90;99.90;;;;;;4982815;28;20007;-83
2023/01/18 14:05:08;;;;;;;2.65;1.67;;;5.90;99.90;;;;;;4966447;28;20022;-82
2023/01/18 14:07:46;;;;;;;5.45;1.67;;;6.00;99.90;;;;;;4982679;28;20027;-83
2023/01/18 14:10:29;;;;;;;4.63;2.50;;;6.00;99.90;;;;;;4982665;28;20027;-83
2023/01/18 14:12:55;;;;;;;7.05;3.97;;;6.00;99.90;;;;;;4982207;28;20023;-83
2023/01/18 14:15:47;;;;;;;16.65;7.13;;;5.90;99.90;;;;;;4965875;28;20055;-83
2023/01/18 14:18:20;;;;;;;13.38;7.30;;;6.00;99.90;;;;;;4982535;28;20023;-81
2023/01/18 14:20:59;;;;;;;6.18;4.10;;;5.90;99.90;;;;;;4982434;28;20050;-84
2023/01/18 14:23:34;;;;;;;4.95;2.55;;;5.90;99.90;;;;;;4982254;28;20075;-83
2023/01/18 14:26:28;;;;;;;4.10;2.15;;;6.00;99.90;;;;;;4965518;29;20075;-83
2023/01/18 14:29:20;;;;;;;4.70;2.58;;;5.90;99.90;;;;;;4962867;28;20035;-83
2023/01/18 14:31:53;;;;;;;4.35;2.60;;;5.80;99.90;;;;;;4982470;28;20027;-83
2023/01/18 14:34:22;;;;;;;4.80;2.05;;;5.80;99.90;;;;;;4981719;28;20031;-83
2023/01/18 14:36:48;;;;;;;4.63;2.22;;;5.80;99.90;;;;;;4981295;28;20015;-83
2023/01/18 14:39:16;;;;;;;;;;;5.60;99.90;;;;;;4982557;29;20034;-84
2023/01/18 14:41:48;;;;;;;5.00;2.90;;;5.70;99.90;;;;;;4981851;28;19911;-83
2023/01/18 14:44:20;;;;;;;4.70;2.90;;;5.40;99.90;;;;;;4981771;28;20031;-84
2023/01/18 14:46:55;;;;;;;5.32;2.50;;;5.40;99.90;;;;;;4982175;28;20027;-83
2023/01/18 14:49:34;;;;;;;7.65;3.15;;;5.50;99.90;;;;;;4981852;28;20074;-84
2023/01/18 14:52:01;;;;;;;4.80;2.95;;;5.30;99.90;;;;;;4981668;29;20043;-83
2023/01/18 14:54:28;;;;;;;5.60;3.40;;;5.30;99.90;;;;;;4981816;28;20011;-83
2023/01/18 14:57:04;;;;;;;6.25;3.88;;;4.80;99.90;;;;;;4965328;29;20031;-84
2023/01/18 14:59:31;;;;;;;7.45;4.63;;;5.40;99.90;;;;;;4964970;28;20019;-83
2023/01/18 15:02:02;;;;;;;12.32;7.35;;;5.00;99.90;;;;;;4981515;28;20026;-85
2023/01/18 15:04:31;;;;;;;21.80;14.23;;;5.00;99.90;;;;;;4965095;29;20079;-83
2023/01/18 15:07:12;;;;;;;35.95;21.05;;;4.90;99.90;;;;;;4965113;29;20576;-83
2023/01/18 15:09:41;;;;;;;88.32;51.65;;;4.80;99.90;;;;;;4981423;28;20031;-82
2023/01/18 15:12:12;;;;;;;82.88;52.38;;;4.70;99.90;;;;;;4980965;28;20050;-83
2023/01/18 15:14:43;;;;;;;77.85;51.03;;;4.70;99.90;;;;;;4981560;28;20051;-83
2023/01/18 15:17:20;;;;;;;58.63;38.38;;;4.50;99.90;;;;;;4964594;29;20039;-84
2023/01/18 15:19:48;;;;;;;46.70;28.83;;;4.50;99.90;;;;;;4981201;29;20029;-84
2023/01/18 15:22:15;;;;;;;43.22;26.67;;;4.50;99.90;;;;;;4980760;28;20046;-83
2023/01/18 15:24:44;;;;;;;33.95;22.40;;;4.40;99.90;;;;;;4980595;28;20055;-84
2023/01/18 15:27:18;;;;;;;40.55;25.77;;;4.60;99.90;;;;;;4981091;28;20074;-84
2023/01/18 15:29:53;;;;;;;48.75;30.60;;;4.20;99.90;;;;;;4964312;29;20027;-84
2023/01/18 15:32:24;;;;;;;47.67;29.80;;;4.10;99.90;;;;;;4980093;29;20039;-83
2023/01/18 15:34:53;;;;;;;73.85;40.20;;;4.10;99.90;;;;;;4963774;29;20020;-83
2023/01/18 15:37:36;;;;;;;65.30;39.33;;;4.10;99.90;;;;;;4980035;29;20091;-84
2023/01/18 15:40:14;;;;;;;65.65;35.60;;;3.80;99.90;;;;;;4963504;29;20012;-84
2023/01/18 15:42:48;;;;;;;72.40;42.47;;;3.80;99.90;;;;;;4980016;29;20019;-84
2023/01/18 15:45:37;;;;;;;104.97;53.63;;;3.70;99.90;;;;;;4962895;29;20087;-83
2023/01/18 15:48:16;;;;;;;117.40;63.25;;;3.70;99.90;;;;;;4962196;29;20218;-84
2023/01/18 15:50:49;;;;;;;130.00;65.35;;;3.60;99.90;;;;;;4980788;28;20018;-84
2023/01/18 15:53:37;;;;;;;109.05;54.67;;;3.50;99.90;;;;;;4980414;28;20039;-84
2023/01/18 15:56:13;;;;;;;71.20;38.88;;;3.50;99.90;;;;;;4978986;29;20202;-84
2023/01/18 15:58:45;;;;;;;156.82;79.20;;;3.50;99.90;;;;;;4962481;29;20031;-83
2023/01/18 16:01:18;;;;;;;98.63;53.60;;;3.40;99.90;;;;;;4978828;28;20059;-84
2023/01/18 16:03:47;;;;;;;110.70;60.40;;;3.50;99.90;;;;;;4962805;29;20039;-84
2023/01/18 16:06:17;;;;;;;24.70;15.95;;;3.50;99.90;;;;;;4961880;29;20027;-84
2023/01/18 16:09:08;;;;;;;15.43;9.20;;;3.60;99.90;;;;;;4978160;29;20046;-84
2023/01/18 16:11:55;;;;;;;13.27;8.02;;;3.60;99.90;;;;;;4978350;29;20031;-84
2023/01/18 16:14:27;;;;;;;13.63;8.13;;;3.50;99.90;;;;;;4978069;29;20058;-84
2023/01/18 16:16:57;;;;;;;18.88;12.27;;;3.60;99.90;;;;;;4978787;29;20024;-84
2023/01/18 16:19:33;;;;;;;12.00;7.88;;;3.70;99.90;;;;;;4978378;29;20046;-85
2023/01/18 16:22:17;;;;;;;12.55;8.00;;;3.60;99.90;;;;;;4961722;29;20088;-84
2023/01/18 16:24:49;;;;;;;9.57;5.63;;;3.60;99.90;;;;;;4961622;29;20035;-83
2023/01/18 16:27:18;;;;;;;10.13;6.38;;;3.50;99.90;;;;;;4961731;29;20059;-85
2023/01/18 16:29:48;;;;;;;11.15;7.57;;;3.50;99.90;;;;;;4978184;29;20023;-84
2023/01/18 16:32:28;;;;;;;16.40;9.98;;;3.50;99.90;;;;;;4961528;29;20043;-83
2023/01/18 16:35:00;;;;;;;32.08;15.75;;;3.60;99.90;;;;;;4961013;29;20039;-84
2023/01/18 16:37:27;;;;;;;31.33;18.25;;;3.60;99.90;;;;;;4978003;29;20104;-83
2023/01/18 16:39:54;;;;;;;35.13;21.95;;;3.60;99.90;;;;;;4977576;29;20023;-84
2023/01/18 16:42:20;;;;;;;20.35;11.55;;;3.60;99.90;;;;;;4977607;29;20034;-83
2023/01/18 16:44:47;;;;;;;22.10;12.10;;;3.60;99.90;;;;;;4961191;29;20039;-84
2023/01/18 16:47:15;;;;;;;21.20;11.55;;;3.60;99.90;;;;;;4977988;29;20034;-83
2023/01/18 16:49:43;;;;;;;21.30;12.27;;;3.70;99.90;;;;;;4960841;29;20069;-84
2023/01/18 16:52:11;;;;;;;16.67;11.02;;;3.80;99.90;;;;;;4977783;29;20023;-84
2023/01/18 16:54:42;;;;;;;87.63;45.67;;;3.70;99.90;;;;;;4961122;29;20035;-84
2023/01/18 16:57:19;;;;;;;133.65;69.65;;;3.80;99.90;;;;;;4977836;29;20035;-84
2023/01/18 16:59:46;;;;;;;94.13;46.50;;;4.10;99.90;;;;;;4983549;28;20051;-83
2023/01/18 17:02:12;;;;;;;;;;;3.90;99.90;;;;;;4984093;28;20023;-83
2023/01/18 17:04:38;;;;;;;660.87;335.93;;;3.90;99.90;;;;;;4984756;28;19907;-82
2023/01/18 17:07:05;;;;;;;68.45;37.33;;;3.80;99.90;;;;;;4983956;28;20038;-84
2023/01/18 17:09:32;;;;;;;20.50;12.48;;;3.90;99.90;;;;;;4967885;29;20043;-84
2023/01/18 17:11:58;;;;;;;190.40;121.18;;;4.00;99.90;;;;;;4983960;29;20007;-83
2023/01/18 17:14:25;;;;;;;110.35;70.95;;;4.00;99.90;;;;;;4967844;29;20023;-84